createdAt,value
2018-05-03T07:53:38.740Z,34.51
2018-05-03T07:54:44.708Z,33.67
2018-05-03T07:55:50.495Z,32.66
2018-05-03T07:56:56.243Z,31.03
2018-05-03T07:58:02.029Z,30.20
2018-05-03T07:59:07.826Z,29.26
2018-05-03T08:00:13.634Z,28.90
2018-05-03T08:01:21.170Z,28.35
2018-05-03T08:02:26.655Z,27.90
2018-05-03T08:03:32.814Z,27.30
2018-05-03T08:04:38.651Z,27.05
2018-05-03T08:05:44.615Z,26.87
2018-05-03T08:06:50.759Z,27.15
2018-05-03T08:07:56.554Z,27.44
2018-05-03T08:09:02.352Z,27.81
2018-05-03T08:10:08.498Z,28.53
2018-05-03T08:11:14.284Z,29.17
2018-05-03T08:12:22.139Z,29.44
2018-05-03T08:13:27.900Z,29.73
2018-05-03T08:14:33.648Z,30.16
2018-05-03T08:15:39.092Z,30.62
2018-05-03T08:16:44.862Z,30.85
2018-05-03T08:17:50.625Z,30.83
2018-05-03T08:18:55.923Z,31.12
2018-05-03T08:20:02.438Z,31.39
2018-05-03T08:21:08.187Z,31.61
2018-05-03T08:22:14.057Z,31.99
2018-05-03T08:23:20.249Z,32.14
2018-05-03T08:24:26.080Z,32.43
2018-05-03T08:25:32.769Z,32.42
2018-05-03T08:26:38.713Z,32.19
2018-05-03T08:27:44.578Z,31.83
2018-05-03T08:28:50.473Z,31.61
2018-05-03T08:29:57.123Z,31.33
2018-05-03T08:31:02.981Z,31.26
2018-05-03T08:32:09.581Z,31.42
2018-05-03T08:33:15.403Z,31.58
2018-05-03T08:34:21.040Z,31.70
2018-05-03T08:35:26.949Z,31.66
2018-05-03T08:36:32.759Z,31.47
2018-05-03T08:37:38.574Z,31.37
2018-05-03T08:38:44.455Z,31.20
2018-05-03T08:39:50.340Z,30.88
2018-05-03T08:40:56.929Z,30.33
2018-05-03T08:42:02.687Z,30.36
2018-05-03T08:43:09.878Z,30.36
2018-05-03T08:44:16.011Z,30.33
2018-05-03T08:45:21.934Z,30.45
2018-05-03T08:46:27.976Z,30.10
2018-05-03T08:47:33.840Z,29.92
2018-05-03T08:48:39.969Z,29.81
2018-05-03T08:49:46.043Z,29.81
2018-05-03T08:50:52.237Z,29.72
2018-05-03T08:51:59.011Z,29.82
2018-05-03T08:53:05.696Z,30.02
2018-05-03T08:54:11.510Z,30.16
2018-05-03T08:55:17.328Z,30.35
2018-05-03T08:56:23.250Z,30.53
2018-05-03T08:57:28.865Z,30.79
2018-05-03T08:58:34.728Z,31.31
2018-05-03T08:59:40.737Z,31.71
2018-05-03T09:00:46.563Z,32.09
2018-05-03T09:01:52.427Z,32.41
2018-05-03T09:02:58.613Z,32.76
2018-05-03T09:04:05.593Z,32.91
2018-05-03T09:05:12.510Z,32.87
2018-05-03T09:06:19.922Z,32.81
2018-05-03T09:07:26.797Z,32.71
2018-05-03T09:08:32.766Z,32.64
2018-05-03T09:09:38.664Z,32.51
2018-05-03T09:10:45.258Z,32.27
2018-05-03T09:11:51.023Z,31.83
2018-05-03T09:12:56.833Z,31.24
2018-05-03T09:14:02.671Z,30.76
2018-05-03T09:15:08.475Z,30.12
2018-05-03T09:16:14.263Z,29.21
2018-05-03T09:17:20.035Z,28.56
2018-05-03T09:18:25.815Z,28.04
2018-05-03T09:19:32.343Z,27.46
2018-05-03T09:20:38.112Z,26.78
2018-05-03T09:21:44.638Z,26.33
2018-05-03T09:22:50.429Z,26.20
2018-05-03T09:23:55.987Z,26.38
2018-05-03T09:25:01.795Z,26.13
2018-05-03T09:26:07.582Z,25.83
2018-05-03T09:27:13.121Z,25.78
2018-05-03T09:28:18.936Z,26.04
2018-05-03T09:29:24.853Z,26.31
2018-05-03T09:30:31.400Z,26.48
2018-05-03T09:31:37.196Z,26.54
2018-05-03T09:32:42.974Z,26.57
2018-05-03T09:33:48.818Z,26.48
2018-05-03T09:34:54.619Z,26.39
2018-05-03T09:36:00.456Z,25.99
2018-05-03T09:37:06.313Z,26.14
2018-05-03T09:38:12.122Z,26.20
2018-05-03T09:39:18.704Z,26.42
2018-05-03T09:40:24.556Z,26.81
2018-05-03T09:41:30.361Z,27.36
2018-05-03T09:42:36.137Z,27.79
2018-05-03T09:43:41.905Z,28.34
2018-05-03T09:44:47.704Z,28.68
2018-05-03T09:45:53.663Z,28.97
2018-05-03T09:46:59.520Z,29.07
2018-05-03T09:48:05.308Z,29.18
2018-05-03T09:49:11.847Z,29.09
2018-05-03T09:50:18.034Z,29.14
2018-05-03T09:51:24.706Z,29.15
2018-05-03T09:52:31.060Z,29.16
2018-05-03T09:53:37.090Z,29.11
2018-05-03T09:54:42.858Z,29.03
2018-05-03T09:55:48.639Z,29.15
2018-05-03T09:56:54.436Z,29.47
2018-05-03T09:58:00.971Z,29.67
2018-05-03T09:59:06.855Z,29.62
2018-05-03T10:00:12.494Z,29.54
2018-05-03T10:01:18.309Z,30.14
2018-05-03T10:02:24.095Z,30.47
2018-05-03T10:03:29.874Z,30.72
2018-05-03T10:04:35.639Z,31.05
2018-05-03T10:05:42.176Z,31.35
2018-05-03T10:06:47.946Z,31.65
2018-05-03T10:07:54.968Z,31.93
2018-05-03T10:09:00.597Z,32.11
2018-05-03T10:10:06.418Z,32.22
2018-05-03T10:11:12.515Z,32.31
2018-05-03T10:12:18.922Z,32.36
2018-05-03T10:13:25.080Z,32.54
2018-05-03T10:14:31.314Z,32.64
2018-05-03T10:15:38.522Z,32.66
2018-05-03T10:16:44.512Z,32.65
2018-05-03T10:17:51.321Z,32.63
2018-05-03T10:18:57.195Z,32.65
2018-05-03T10:20:02.945Z,32.80
2018-05-03T10:21:08.989Z,32.80
2018-05-03T10:22:14.896Z,33.20
2018-05-03T10:23:20.582Z,33.51
2018-05-03T10:24:28.481Z,33.52
2018-05-03T10:25:35.463Z,33.67
2018-05-03T10:26:42.343Z,33.62
2018-05-03T10:27:49.640Z,33.51
2018-05-03T10:28:58.399Z,33.51
2018-05-03T10:30:04.413Z,33.83
2018-05-03T10:31:10.438Z,34.33
2018-05-03T10:32:16.732Z,34.71
2018-05-03T10:33:22.510Z,34.98
2018-05-03T10:34:28.547Z,35.12
2018-05-03T10:35:34.348Z,35.31
2018-05-03T10:36:40.122Z,35.39
2018-05-03T10:37:45.894Z,35.37
2018-05-03T10:38:52.434Z,35.27
2018-05-03T10:39:58.199Z,35.08
2018-05-03T10:41:04.784Z,34.84
2018-05-03T10:42:10.793Z,34.97
2018-05-03T10:43:16.488Z,35.17
2018-05-03T10:44:23.822Z,35.30
2018-05-03T10:45:30.350Z,35.39
2018-05-03T10:46:36.155Z,35.27
2018-05-03T10:47:42.225Z,34.84
2018-05-03T10:48:48.235Z,34.65
2018-05-03T10:49:53.753Z,34.21
2018-05-03T10:51:00.296Z,33.85
2018-05-03T10:52:06.095Z,33.68
2018-05-03T10:53:11.890Z,33.62
2018-05-03T10:54:17.986Z,33.57
2018-05-03T10:55:23.761Z,33.37
2018-05-03T10:56:29.536Z,32.96
2018-05-03T10:57:36.099Z,32.84
2018-05-03T10:58:42.639Z,32.97
2018-05-03T10:59:48.613Z,33.13
2018-05-03T11:00:55.162Z,33.36
2018-05-03T11:02:01.708Z,33.73
2018-05-03T11:03:08.266Z,33.82
2018-05-03T11:04:14.039Z,34.14
2018-05-03T11:05:19.603Z,34.51
2018-05-03T11:06:25.604Z,34.80
2018-05-03T11:07:32.150Z,35.08
2018-05-03T11:08:37.956Z,35.49
2018-05-03T11:09:43.719Z,35.71
2018-05-03T11:10:49.493Z,35.78
2018-05-03T11:11:56.083Z,36.12
2018-05-03T11:13:01.851Z,36.31
2018-05-03T11:14:07.698Z,36.75
2018-05-03T11:15:13.542Z,36.85
2018-05-03T11:16:20.704Z,37.22
2018-05-03T11:17:26.484Z,37.70
2018-05-03T11:18:33.018Z,38.25
2018-05-03T11:19:38.836Z,38.65
2018-05-03T11:20:46.387Z,39.33
2018-05-03T11:21:52.939Z,39.84
2018-05-03T11:22:59.487Z,40.19
2018-05-03T11:24:05.790Z,40.64
2018-05-03T11:25:11.589Z,40.86
2018-05-03T11:26:17.583Z,41.10
2018-05-03T11:27:23.358Z,41.16
2018-05-03T11:28:29.363Z,41.19
2018-05-03T11:29:35.190Z,41.39
2018-05-03T11:30:41.876Z,41.70
2018-05-03T11:31:47.693Z,41.89
2018-05-03T11:32:53.514Z,42.12
2018-05-03T11:33:59.293Z,42.24
2018-05-03T11:35:04.814Z,42.33
2018-05-03T11:36:11.379Z,42.47
2018-05-03T11:37:17.155Z,42.38
2018-05-03T11:38:23.064Z,42.26
2018-05-03T11:39:28.851Z,42.59
2018-05-03T11:40:34.727Z,42.54
2018-05-03T11:41:40.555Z,42.28
2018-05-03T11:42:46.669Z,42.17
2018-05-03T11:43:52.713Z,42.17
2018-05-03T11:44:58.495Z,42.13
2018-05-03T11:46:04.276Z,42.24
2018-05-03T11:47:10.840Z,42.32
2018-05-03T11:48:16.617Z,42.13
2018-05-03T11:49:22.633Z,41.94
2018-05-03T11:50:28.404Z,41.91
2018-05-03T11:51:33.943Z,41.67
2018-05-03T11:52:39.740Z,41.13
2018-05-03T11:53:46.326Z,40.87
2018-05-03T11:54:52.172Z,40.68
2018-05-03T11:55:58.229Z,40.81
2018-05-03T11:57:04.083Z,40.63
2018-05-03T11:58:09.729Z,40.80
2018-05-03T11:59:15.691Z,41.44
2018-05-03T12:00:21.999Z,41.63
2018-05-03T12:01:28.361Z,41.91
2018-05-03T12:02:34.127Z,42.25
2018-05-03T12:03:39.915Z,42.56
2018-05-03T12:04:46.476Z,42.54
2018-05-03T12:05:53.027Z,42.01
2018-05-03T12:06:59.574Z,41.68
2018-05-03T12:08:05.095Z,41.61
2018-05-03T12:09:11.221Z,41.89
2018-05-03T12:10:16.991Z,41.35
2018-05-03T12:11:22.813Z,41.15
2018-05-03T12:12:28.600Z,41.50
2018-05-03T12:13:35.131Z,41.84
2018-05-03T12:14:41.233Z,41.91
2018-05-03T12:15:48.082Z,41.95
2018-05-03T12:16:54.771Z,42.16
2018-05-03T12:18:00.670Z,42.40
2018-05-03T12:19:07.242Z,42.32
2018-05-03T12:20:13.050Z,41.84
2018-05-03T12:21:18.709Z,41.94
2018-05-03T12:22:25.272Z,42.13
2018-05-03T12:23:31.038Z,42.55
2018-05-03T12:24:37.592Z,42.89
2018-05-03T12:25:43.873Z,43.08
2018-05-03T12:26:49.789Z,43.27
2018-05-03T12:27:55.588Z,43.34
2018-05-03T12:29:01.575Z,43.52
2018-05-03T12:30:08.119Z,43.55
2018-05-03T12:31:14.108Z,43.55
2018-05-03T12:32:19.938Z,43.42
2018-05-03T12:33:26.499Z,43.14
2018-05-03T12:34:33.085Z,43.15
2018-05-03T12:35:38.924Z,43.32
2018-05-03T12:36:44.723Z,43.60
2018-05-03T12:37:52.026Z,43.84
2018-05-03T12:38:58.592Z,43.74
2018-05-03T12:40:05.885Z,44.06
2018-05-03T12:41:11.831Z,44.28
2018-05-03T12:42:18.163Z,44.16
2018-05-03T12:43:24.981Z,44.15
2018-05-03T12:44:30.774Z,44.41
2018-05-03T12:45:37.405Z,44.43
2018-05-03T12:46:44.833Z,43.99
2018-05-03T12:47:50.698Z,43.75
2018-05-03T12:48:56.326Z,43.65
2018-05-03T12:50:02.104Z,43.63
2018-05-03T12:51:08.005Z,43.55
2018-05-03T12:52:13.808Z,43.49
2018-05-03T12:53:19.662Z,43.42
2018-05-03T12:54:26.255Z,43.50
2018-05-03T12:55:33.136Z,43.56
2018-05-03T12:56:39.251Z,43.39
2018-05-03T12:57:45.014Z,43.83
2018-05-03T12:58:51.159Z,43.97
2018-05-03T12:59:58.020Z,43.95
2018-05-03T13:01:03.912Z,43.91
2018-05-03T13:02:10.065Z,43.87
2018-05-03T13:03:16.168Z,43.79
2018-05-03T13:04:22.339Z,43.81
2018-05-03T13:05:28.463Z,43.10
2018-05-03T13:06:35.450Z,42.60
2018-05-03T13:07:41.501Z,42.37
2018-05-03T13:08:47.953Z,42.08
2018-05-03T13:09:55.143Z,41.97
2018-05-03T13:11:01.208Z,42.31
2018-05-03T13:12:07.400Z,42.66
2018-05-03T13:13:14.250Z,42.73
2018-05-03T13:14:20.111Z,42.69
2018-05-03T13:15:26.039Z,42.65
2018-05-03T13:16:31.834Z,42.31
2018-05-03T13:17:39.014Z,42.32
2018-05-03T13:18:45.755Z,42.38
2018-05-03T13:19:51.620Z,41.95
2018-05-03T13:20:57.508Z,41.62
2018-05-03T13:22:03.377Z,41.40
2018-05-03T13:23:09.166Z,41.59
2018-05-03T13:24:14.947Z,41.79
2018-05-03T13:25:21.597Z,41.92
2018-05-03T13:26:27.391Z,41.84
2018-05-03T13:27:33.352Z,41.73
2018-05-03T13:28:39.168Z,41.49
2018-05-03T13:29:45.019Z,41.01
2018-05-03T13:30:50.943Z,41.04
2018-05-03T13:31:57.531Z,40.76
2018-05-03T13:33:03.300Z,40.50
2018-05-03T13:34:09.087Z,40.48
2018-05-03T13:35:14.873Z,40.78
2018-05-03T13:36:20.649Z,40.71
2018-05-03T13:37:26.610Z,40.77
2018-05-03T13:38:32.568Z,40.88
2018-05-03T13:39:40.045Z,41.02
2018-05-03T13:40:45.676Z,40.97
2018-05-03T13:41:52.568Z,41.21
2018-05-03T13:42:58.728Z,41.52
2018-05-03T13:44:04.570Z,41.91
2018-05-03T13:45:10.355Z,42.19
2018-05-03T13:46:16.128Z,42.29
2018-05-03T13:47:22.845Z,42.23
2018-05-03T13:48:28.674Z,41.99
2018-05-03T13:49:34.777Z,41.83
2018-05-03T13:50:40.551Z,41.82
2018-05-03T13:51:46.360Z,41.52
2018-05-03T13:52:52.908Z,41.31
2018-05-03T13:53:58.706Z,40.75
2018-05-03T13:55:04.147Z,40.38
2018-05-03T13:56:09.912Z,39.89
2018-05-03T13:57:15.688Z,39.53
2018-05-03T13:58:22.234Z,39.52
2018-05-03T13:59:28.052Z,39.52
2018-05-03T14:00:33.827Z,39.68
2018-05-03T14:01:40.187Z,39.90
2018-05-03T14:02:46.038Z,39.40
2018-05-03T14:03:52.690Z,39.25
2018-05-03T14:04:59.293Z,39.21
2018-05-03T14:06:06.130Z,39.09
2018-05-03T14:07:12.032Z,39.04
2018-05-03T14:08:17.922Z,38.99
2018-05-03T14:09:23.716Z,39.24
2018-05-03T14:10:29.542Z,39.31
2018-05-03T14:11:35.317Z,39.10
2018-05-03T14:12:41.123Z,39.04
2018-05-03T14:13:47.033Z,39.55
2018-05-03T14:14:53.588Z,39.52
2018-05-03T14:16:00.151Z,39.55
2018-05-03T14:17:06.689Z,39.65
2018-05-03T14:18:12.377Z,39.69
2018-05-03T14:19:18.216Z,39.71
2018-05-03T14:20:23.910Z,40.32
2018-05-03T14:21:29.773Z,40.70
2018-05-03T14:22:36.363Z,41.07
2018-05-03T14:23:42.159Z,41.10
2018-05-03T14:24:48.076Z,41.09
2018-05-03T14:25:53.885Z,41.23
2018-05-03T14:26:59.680Z,41.39
2018-05-03T14:28:05.122Z,41.44
2018-05-03T14:29:10.919Z,41.48
2018-05-03T14:30:16.500Z,41.60
2018-05-03T14:31:22.273Z,41.76
2018-05-03T14:32:29.058Z,41.68
2018-05-03T14:33:34.857Z,41.50
2018-05-03T14:34:40.697Z,41.25
2018-05-03T14:35:46.774Z,41.13
2018-05-03T14:36:53.323Z,40.97
2018-05-03T14:37:59.898Z,40.94
2018-05-03T14:39:06.522Z,40.93
2018-05-03T14:40:12.295Z,40.88
2018-05-03T14:41:18.877Z,40.89
2018-05-03T14:42:24.840Z,40.56
2018-05-03T14:43:30.637Z,40.49
2018-05-03T14:44:37.277Z,40.51
2018-05-03T14:45:43.076Z,40.57
2018-05-03T14:46:48.858Z,40.62
2018-05-03T14:47:54.638Z,40.28
2018-05-03T14:49:01.210Z,39.92
2018-05-03T14:50:06.994Z,39.79
2018-05-03T14:51:12.770Z,39.19
2018-05-03T14:52:19.360Z,39.12
2018-05-03T14:53:25.115Z,39.42
2018-05-03T14:54:30.915Z,39.21
2018-05-03T14:55:36.784Z,39.21
2018-05-03T14:56:43.303Z,38.88
2018-05-03T14:57:49.836Z,38.96
2018-05-03T14:58:56.274Z,38.93
2018-05-03T15:00:02.068Z,38.86
2018-05-03T15:01:07.849Z,38.98
2018-05-03T15:02:13.612Z,39.21
2018-05-03T15:03:19.371Z,39.42
2018-05-03T15:04:25.379Z,39.60
2018-05-03T15:05:31.194Z,39.75
2018-05-03T15:06:36.871Z,39.88
2018-05-03T15:07:42.797Z,39.94
2018-05-03T15:08:49.471Z,39.96
2018-05-03T15:09:54.907Z,39.84
2018-05-03T15:11:00.685Z,39.77
2018-05-03T15:12:06.197Z,39.39
2018-05-03T15:13:11.975Z,38.66
2018-05-03T15:14:17.495Z,38.15
2018-05-03T15:15:25.096Z,37.58
2018-05-03T15:16:31.032Z,37.93
2018-05-03T15:17:37.065Z,37.87
2018-05-03T15:18:42.817Z,37.63
2018-05-03T15:19:48.580Z,38.01
2018-05-03T15:20:55.262Z,38.17
2018-05-03T15:22:01.044Z,38.08
2018-05-03T15:23:06.880Z,38.13
2018-05-03T15:24:12.756Z,37.86
2018-05-03T15:25:18.423Z,37.68
2018-05-03T15:26:24.335Z,37.58
2018-05-03T15:27:31.309Z,37.49
2018-05-03T15:28:37.107Z,37.32
2018-05-03T15:29:44.183Z,37.36
2018-05-03T15:30:50.256Z,37.48
2018-05-03T15:31:56.107Z,37.38
2018-05-03T15:33:01.959Z,37.30
2018-05-03T15:34:07.812Z,37.34
2018-05-03T15:35:13.347Z,37.43
2018-05-03T15:36:19.168Z,37.51
2018-05-03T15:37:25.827Z,37.59
2018-05-03T15:38:31.764Z,37.62
2018-05-03T15:39:37.559Z,37.61
2018-05-03T15:40:43.309Z,37.52
2018-05-03T15:41:50.098Z,37.52
2018-05-03T15:42:55.947Z,37.55
2018-05-03T15:44:01.889Z,37.72
2018-05-03T15:45:07.708Z,37.63
2018-05-03T15:46:13.641Z,37.76
2018-05-03T15:47:19.833Z,37.83
2018-05-03T15:48:25.399Z,37.90
2018-05-03T15:49:31.369Z,38.18
2018-05-03T15:50:38.006Z,38.51
2018-05-03T15:51:43.930Z,38.58
2018-05-03T15:52:49.770Z,38.33
2018-05-03T15:53:56.408Z,38.50
2018-05-03T15:55:03.180Z,38.62
2018-05-03T15:56:09.336Z,38.79
2018-05-03T15:57:15.296Z,38.09
2018-05-03T15:58:21.344Z,37.93
2018-05-03T15:59:27.294Z,38.16
2018-05-03T16:00:33.330Z,38.37
2018-05-03T16:01:39.309Z,38.39
2018-05-03T16:02:45.426Z,38.51
2018-05-03T16:03:51.285Z,38.46
2018-05-03T16:04:57.077Z,38.51
2018-05-03T16:06:02.872Z,38.59
2018-05-03T16:07:08.718Z,38.68
2018-05-03T16:08:14.484Z,38.69
2018-05-03T16:09:20.237Z,38.56
2018-05-03T16:10:26.131Z,38.61
2018-05-03T16:11:31.931Z,38.61
2018-05-03T16:12:37.901Z,38.47
2018-05-03T16:13:43.894Z,38.48
2018-05-03T16:14:49.722Z,38.47
2018-05-03T16:15:56.066Z,38.58
2018-05-03T16:17:02.420Z,38.79
2018-05-03T16:18:08.660Z,39.00
2018-05-03T16:19:14.825Z,39.19
2018-05-03T16:20:21.270Z,39.27
2018-05-03T16:21:27.326Z,39.36
2018-05-03T16:22:33.481Z,39.41
2018-05-03T16:23:39.515Z,39.41
2018-05-03T16:24:45.472Z,39.40
2018-05-03T16:25:52.331Z,39.18
2018-05-03T16:26:58.081Z,39.06
2018-05-03T16:28:03.826Z,38.88
2018-05-03T16:29:09.971Z,38.73
2018-05-03T16:30:16.086Z,38.82
2018-05-03T16:31:22.559Z,38.76
2018-05-03T16:32:28.731Z,39.02
2018-05-03T16:33:35.867Z,39.18
2018-05-03T16:34:42.875Z,39.25
2018-05-03T16:35:48.846Z,39.05
2018-05-03T16:36:55.485Z,38.90
2018-05-03T16:38:01.739Z,38.91
2018-05-03T16:39:08.806Z,38.96
2018-05-03T16:40:15.121Z,38.71
2018-05-03T16:41:22.368Z,38.42
2018-05-03T16:42:29.412Z,38.29
2018-05-03T16:43:35.616Z,38.38
2018-05-03T16:44:42.641Z,38.53
2018-05-03T16:45:49.644Z,38.30
2018-05-03T16:46:55.864Z,38.09
2018-05-03T16:48:02.225Z,38.00
2018-05-03T16:49:08.265Z,38.02
2018-05-03T16:50:14.491Z,38.10
2018-05-03T16:51:20.739Z,37.99
2018-05-03T16:52:27.796Z,37.93
2018-05-03T16:53:34.132Z,38.15
2018-05-03T16:54:40.275Z,38.30
2018-05-03T16:55:48.040Z,38.35
2018-05-03T16:56:54.141Z,38.40
2018-05-03T16:58:01.736Z,38.56
2018-05-03T16:59:08.892Z,38.70
2018-05-03T17:00:15.208Z,38.65
2018-05-03T17:01:21.398Z,38.40
2018-05-03T17:02:28.131Z,38.37
2018-05-03T17:03:35.366Z,38.14
2018-05-03T17:04:42.046Z,37.64
2018-05-03T17:05:48.017Z,37.67
2018-05-03T17:06:55.157Z,37.84
2018-05-03T17:08:01.435Z,37.93
2018-05-03T17:09:09.352Z,37.98
2018-05-03T17:10:15.469Z,38.03
2018-05-03T17:11:21.692Z,37.90
2018-05-03T17:12:27.788Z,38.13
2018-05-03T17:13:35.581Z,38.29
2018-05-03T17:14:43.663Z,38.00
2018-05-03T17:15:51.666Z,37.98
2018-05-03T17:16:58.741Z,37.91
2018-05-03T17:18:04.846Z,38.21
2018-05-03T17:19:11.916Z,38.40
2018-05-03T17:20:18.242Z,38.64
2018-05-03T17:21:25.884Z,38.54
2018-05-03T17:22:32.038Z,38.57
2018-05-03T17:23:40.051Z,38.70
2018-05-03T17:24:46.404Z,38.67
2018-05-03T17:25:53.819Z,38.96
2018-05-03T17:27:00.325Z,38.96
2018-05-03T17:28:07.485Z,38.77
2018-05-03T17:29:13.855Z,38.83
2018-05-03T17:30:22.400Z,38.41
2018-05-03T17:31:28.613Z,37.85
2018-05-03T17:32:35.481Z,37.67
2018-05-03T17:33:41.773Z,37.72
2018-05-03T17:34:50.327Z,37.58
2018-05-03T17:35:56.499Z,37.65
2018-05-03T17:37:02.750Z,37.50
2018-05-03T17:38:09.311Z,37.47
2018-05-03T17:39:15.886Z,37.19
2018-05-03T17:40:22.122Z,36.83
2018-05-03T17:41:29.310Z,37.05
2018-05-03T17:42:35.257Z,37.14
2018-05-03T17:43:42.517Z,37.30
2018-05-03T17:44:50.153Z,37.45
2018-05-03T17:45:56.265Z,37.34
2018-05-03T17:47:03.558Z,37.51
2018-05-03T17:48:11.118Z,37.48
2018-05-03T17:49:17.777Z,37.26
2018-05-03T17:50:25.671Z,37.40
2018-05-03T17:51:33.527Z,37.54
2018-05-03T17:52:40.445Z,37.62
2018-05-03T17:53:49.783Z,37.58
2018-05-03T17:54:56.518Z,37.61
2018-05-03T17:56:03.586Z,37.66
2018-05-03T17:57:09.744Z,37.45
2018-05-03T17:58:15.892Z,37.46
2018-05-03T17:59:21.977Z,37.29
2018-05-03T18:00:29.070Z,37.41
2018-05-03T18:01:36.344Z,37.60
2018-05-03T18:02:43.312Z,37.62
2018-05-03T18:03:50.033Z,37.67
2018-05-03T18:04:58.649Z,37.74
2018-05-03T18:06:07.932Z,37.88
2018-05-03T18:07:16.821Z,38.03
2018-05-03T18:08:24.520Z,38.07
2018-05-03T18:09:37.380Z,38.04
2018-05-03T18:10:44.579Z,38.08
2018-05-03T18:11:51.380Z,38.10
2018-05-03T18:12:59.609Z,38.01
2018-05-03T18:14:06.589Z,38.15
2018-05-03T18:15:12.807Z,38.13
2018-05-03T18:16:19.699Z,38.26
2018-05-03T18:17:28.284Z,38.21
2018-05-03T18:18:34.354Z,38.15
2018-05-03T18:19:41.121Z,37.98
2018-05-03T18:20:48.150Z,38.11
2018-05-03T18:21:54.233Z,38.18
2018-05-03T18:23:01.518Z,38.25
2018-05-03T18:24:09.546Z,38.24
2018-05-03T18:25:16.186Z,38.13
2018-05-03T18:26:22.429Z,37.93
2018-05-03T18:27:30.798Z,37.98
2018-05-03T18:28:37.771Z,38.03
2018-05-03T18:29:44.626Z,38.12
2018-05-03T18:30:54.403Z,38.08
2018-05-03T18:32:03.422Z,38.26
2018-05-03T18:33:09.470Z,38.39
2018-05-03T18:34:15.483Z,38.36
2018-05-03T18:35:23.834Z,38.38
2018-05-03T18:36:30.923Z,38.20
2018-05-03T18:37:36.838Z,38.29
2018-05-03T18:38:43.509Z,38.33
2018-05-03T18:39:51.188Z,38.26
2018-05-03T18:40:58.566Z,38.28
2018-05-03T18:42:06.731Z,38.42
2018-05-03T18:43:13.900Z,38.52
2018-05-03T18:44:21.594Z,38.60
2018-05-03T18:45:30.181Z,38.64
2018-05-03T18:46:36.623Z,38.76
2018-05-03T18:47:43.590Z,38.84
2018-05-03T18:48:50.022Z,38.82
2018-05-03T18:49:58.610Z,38.83
2018-05-03T18:51:04.981Z,38.90
2018-05-03T18:52:12.351Z,38.93
2018-05-03T18:53:18.734Z,39.03
2018-05-03T18:54:24.663Z,39.10
2018-05-03T18:55:32.462Z,39.12
2018-05-03T18:56:41.921Z,39.13
2018-05-03T18:57:50.098Z,39.06
2018-05-03T18:58:57.898Z,38.92
2018-05-03T19:00:05.046Z,38.96
2018-05-03T19:01:11.700Z,39.00
2018-05-03T19:02:19.729Z,38.99
2018-05-03T19:03:26.162Z,39.08
2018-05-03T19:04:34.269Z,39.09
2018-05-03T19:05:40.222Z,38.94
2018-05-03T19:06:46.326Z,38.98
2018-05-03T19:07:53.263Z,39.01
2018-05-03T19:09:00.513Z,38.79
2018-05-03T19:10:08.646Z,38.82
2018-05-03T19:11:15.848Z,38.79
2018-05-03T19:12:25.975Z,38.78
2018-05-03T19:13:34.991Z,38.87
2018-05-03T19:14:43.661Z,38.93
2018-05-03T19:15:52.486Z,39.01
2018-05-03T19:16:59.626Z,38.95
2018-05-03T19:18:08.339Z,38.86
2018-05-03T19:19:15.444Z,38.90
2018-05-03T19:20:23.834Z,38.80
2018-05-03T19:21:30.912Z,38.94
2018-05-03T19:22:37.461Z,38.97
2018-05-03T19:23:44.209Z,39.04
2018-05-03T19:24:53.351Z,39.11
2018-05-03T19:26:00.600Z,39.18
2018-05-03T19:27:08.122Z,39.21
2018-05-03T19:28:15.675Z,39.32
2018-05-03T19:29:23.334Z,39.48
2018-05-03T19:30:31.428Z,39.51
2018-05-03T19:31:39.270Z,39.57
2018-05-03T19:32:47.445Z,39.67
2018-05-03T19:33:55.496Z,39.81
2018-05-03T19:35:04.771Z,39.78
2018-05-03T19:36:12.486Z,39.89
2018-05-03T19:37:21.684Z,39.95
2018-05-03T19:38:28.269Z,40.06
2018-05-03T19:39:35.645Z,40.05
2018-05-03T19:40:41.683Z,40.09
2018-05-03T19:41:50.195Z,40.13
2018-05-03T19:43:00.267Z,40.22
2018-05-03T19:44:07.498Z,40.30
2018-05-03T19:45:13.959Z,40.32
2018-05-03T19:46:21.606Z,40.36
2018-05-03T19:47:28.568Z,40.42
2018-05-03T19:48:36.912Z,40.35
2018-05-03T19:49:43.288Z,40.34
2018-05-03T19:50:49.881Z,40.33
2018-05-03T19:52:02.927Z,40.48
2018-05-03T19:53:10.309Z,40.41
2018-05-03T19:54:16.540Z,40.57
2018-05-03T19:55:24.687Z,40.45
2018-05-03T19:56:32.358Z,40.55
2018-05-03T19:57:40.978Z,40.56
2018-05-03T19:58:48.022Z,40.64
2018-05-03T19:59:55.131Z,40.80
2018-05-03T20:01:02.097Z,40.82
2018-05-03T20:02:08.538Z,40.88
2018-05-03T20:03:16.140Z,41.01
2018-05-03T20:04:23.004Z,41.11
2018-05-03T20:05:30.234Z,41.18
2018-05-03T20:06:37.547Z,41.25
2018-05-03T20:07:44.618Z,41.39
2018-05-03T20:08:53.333Z,41.45
2018-05-03T20:10:00.517Z,41.58
2018-05-03T20:11:06.654Z,41.66
2018-05-03T20:12:13.213Z,41.65
2018-05-03T20:13:19.854Z,41.76
2018-05-03T20:14:26.141Z,41.78
2018-05-03T20:15:35.454Z,41.88
2018-05-03T20:16:42.644Z,41.89
2018-05-03T20:17:51.544Z,41.91
2018-05-03T20:18:59.069Z,42.03
2018-05-03T20:20:06.318Z,42.12
2018-05-03T20:21:13.694Z,42.13
2018-05-03T20:22:23.032Z,42.21
2018-05-03T20:23:29.816Z,42.26
2018-05-03T20:24:37.169Z,42.36
2018-05-03T20:25:45.039Z,42.37
2018-05-03T20:26:51.329Z,42.34
2018-05-03T20:27:58.755Z,42.32
2018-05-03T20:29:08.782Z,42.44
2018-05-03T20:30:15.706Z,42.45
2018-05-03T20:31:23.822Z,42.54
2018-05-03T20:32:30.833Z,42.42
2018-05-03T20:33:37.034Z,42.48
2018-05-03T20:34:43.901Z,42.59
2018-05-03T20:35:51.824Z,42.63
2018-05-03T20:36:58.653Z,42.66
2018-05-03T20:38:05.766Z,42.58
2018-05-03T20:39:12.897Z,42.58
2018-05-03T20:40:20.179Z,42.62
2018-05-03T20:41:28.765Z,42.67
2018-05-03T20:42:35.760Z,42.70
2018-05-03T20:43:47.315Z,42.66
2018-05-03T20:44:53.516Z,42.78
2018-05-03T20:46:01.329Z,42.83
2018-05-03T20:47:07.781Z,42.87
2018-05-03T20:48:15.930Z,42.89
2018-05-03T20:49:22.253Z,42.85
2018-05-03T20:50:28.123Z,42.90
2018-05-03T20:51:34.192Z,42.69
2018-05-03T20:52:41.084Z,42.79
2018-05-03T20:53:47.337Z,42.70
2018-05-03T20:54:54.275Z,42.83
2018-05-03T20:56:01.185Z,42.89
2018-05-03T20:57:09.215Z,42.82
2018-05-03T20:58:16.491Z,42.88
2018-05-03T20:59:22.739Z,43.01
2018-05-03T21:00:30.039Z,42.97
2018-05-03T21:01:36.184Z,43.01
2018-05-03T21:02:43.088Z,43.03
2018-05-03T21:03:51.136Z,43.10
2018-05-03T21:04:57.492Z,43.20
2018-05-03T21:06:05.346Z,43.22
2018-05-03T21:07:13.631Z,43.26
2018-05-03T21:08:22.956Z,43.40
2018-05-03T21:09:29.202Z,43.48
2018-05-03T21:10:38.748Z,43.54
2018-05-03T21:11:46.804Z,43.64
2018-05-03T21:12:54.192Z,43.70
2018-05-03T21:14:01.279Z,43.72
2018-05-03T21:15:08.709Z,43.78
2018-05-03T21:16:16.482Z,43.90
2018-05-03T21:17:22.762Z,43.94
2018-05-03T21:18:29.939Z,43.97
2018-05-03T21:19:37.751Z,44.06
2018-05-03T21:20:46.211Z,44.15
2018-05-03T21:21:54.226Z,44.21
2018-05-03T21:23:02.756Z,44.27
2018-05-03T21:24:09.148Z,44.34
2018-05-03T21:25:16.441Z,44.45
2018-05-03T21:26:24.382Z,44.43
2018-05-03T21:27:30.936Z,44.48
2018-05-03T21:28:39.140Z,44.45
2018-05-03T21:29:46.317Z,44.43
2018-05-03T21:30:53.485Z,44.43
2018-05-03T21:32:00.845Z,44.53
2018-05-03T21:33:07.931Z,44.60
2018-05-03T21:34:15.285Z,44.64
2018-05-03T21:35:21.865Z,44.71
2018-05-03T21:36:29.203Z,44.75
2018-05-03T21:37:36.718Z,44.72
2018-05-03T21:38:43.121Z,44.75
2018-05-03T21:39:49.292Z,44.68
2018-05-03T21:40:56.306Z,44.83
2018-05-03T21:42:02.898Z,44.89
2018-05-03T21:43:09.112Z,44.99
2018-05-03T21:44:15.373Z,45.03
2018-05-03T21:45:21.515Z,44.96
2018-05-03T21:46:27.727Z,45.00
2018-05-03T21:47:35.070Z,44.96
2018-05-03T21:48:41.249Z,44.99
2018-05-03T21:49:47.452Z,44.91
2018-05-03T21:50:53.655Z,44.88
2018-05-03T21:52:00.523Z,44.81
2018-05-03T21:53:07.432Z,44.78
2018-05-03T21:54:13.517Z,44.82
2018-05-03T21:55:19.644Z,44.77
2018-05-03T21:56:27.261Z,44.89
2018-05-03T21:57:33.410Z,44.76
2018-05-03T21:58:39.669Z,44.60
2018-05-03T21:59:48.247Z,44.61
2018-05-03T22:00:54.946Z,44.54
2018-05-03T22:02:00.880Z,44.65
2018-05-03T22:03:07.590Z,44.67
2018-05-03T22:04:15.214Z,44.80
2018-05-03T22:05:21.240Z,44.74
2018-05-03T22:06:28.082Z,44.81
2018-05-03T22:07:38.328Z,44.82
2018-05-03T22:08:45.034Z,44.93
2018-05-03T22:09:51.039Z,44.93